Terminal Aerodrome Forecast
Issued by NWS

Home | Current Version | Previous Version | Text Only | Print | Product List | Glossary On
Versions: 1 2 3 4 5 6 7 8 9 10 11 12 13 14 15 16 17 18 19 20
000
FTUS41 KBTV 252026 AAA
TAFPBG
TAF AMD
KPBG 252026Z 2520/2618 16012G22KT P6SM VCSH OVC045
     FM252100 25012G22KT 5SM -SHRA BR OVC035
      TEMPO 2521/2522 25015G29KT 2SM +SHRA BR BKN015
     FM260200 25010KT 6SM -SHRA BR OVC020
     FM260400 28010KT P6SM OVC030
     FM261500 29010G20KT P6SM BKN030=

USA.gov is the U.S. government's official web portal to all federal, state and local government web resources and services.